Time;durP1;ratioP1;P1;durP2;ratioP2;P2;SDS_P1;SDS_P2;PMS_P1;PMS_P2;Temp;Humidity;BMP_temperature;BMP_pressure;BME280_temperature;BME280_humidity;BME280_pressure;Samples;Min_cycle;Max_cycle;Signal;HPM_P1;HPM_P2
2023/01/29 00:00:50;;;;;;;8.68;8.27;;;;;;;;;;5099356;28;20020;-65
2023/01/29 00:03:15;;;;;;;8.82;8.43;;;;;;;;;;5101658;28;20023;-66
2023/01/29 00:05:40;;;;;;;8.43;8.02;;;;;;;;;;5082142;28;20520;-66
2023/01/29 00:08:05;;;;;;;8.25;7.85;;;;;;;;;;5083451;28;20030;-65
2023/01/29 00:10:31;;;;;;;8.65;8.25;;;;;;;;;;5100875;28;20024;-65
2023/01/29 00:12:56;;;;;;;8.88;8.48;;;;;;;;;;5100937;28;20042;-66
2023/01/29 00:15:21;;;;;;;9.60;9.10;;;;;;;;;;5097490;28;20379;-66
2023/01/29 00:17:47;;;;;;;9.05;8.65;;;;;;;;;;5092820;28;20383;-65
2023/01/29 00:20:12;;;;;;;8.73;8.32;;;;;;;;;;5097398;28;20414;-65
2023/01/29 00:22:37;;;;;;;9.25;8.75;;;;;;;;;;5098557;28;20453;-65
2023/01/29 00:25:03;;;;;;;8.60;8.20;;;;;;;;;;5100437;28;20012;-65
2023/01/29 00:27:28;;;;;;;8.98;8.55;;;;;;;;;;5103183;28;20073;-65
2023/01/29 00:30:11;;;;;;;8.85;8.45;;;;;;;;;;5102599;28;20524;-64
2023/01/29 00:32:36;;;;;;;8.90;8.50;;;;;;;;;;5098918;28;20023;-66
2023/01/29 00:35:02;;;;;;;8.63;8.23;;;;;;;;;;5103946;28;20028;-66
2023/01/29 00:37:27;;;;;;;8.90;8.50;;;;;;;;;;5097595;28;20204;-66
2023/01/29 00:39:53;;;;;;;8.60;8.20;;;;;;;;;;5095989;28;20034;-66
2023/01/29 00:45:02;;;;;;;8.60;8.20;;;;;;;;;;5103891;28;20034;-65
2023/01/29 00:47:32;;;;;;;8.90;8.50;;;;;;;;;;5100979;28;20514;-64
2023/01/29 00:49:57;;;;;;;8.63;8.23;;;;;;;;;;5100522;28;20027;-65
2023/01/29 00:52:23;;;;;;;8.45;8.05;;;;;;;;;;5097283;28;20103;-65
2023/01/29 00:54:48;;;;;;;8.90;8.50;;;;;;;;;;5100671;28;20076;-65
2023/01/29 00:57:13;;;;;;;8.57;8.18;;;;;;;;;;5082285;28;20028;-65
2023/01/29 00:59:39;;;;;;;9.48;8.98;;;;;;;;;;5102595;28;20026;-66
2023/01/29 01:04:48;;;;;;;8.18;7.82;;;;;;;;;;5096055;28;20070;-65
2023/01/29 01:07:13;;;;;;;8.77;8.38;;;;;;;;;;5097726;28;20052;-65
2023/01/29 01:12:22;;;;;;;8.40;8.00;;;;;;;;;;5097905;28;20034;-64
2023/01/29 01:14:48;;;;;;;8.95;8.55;;;;;;;;;;5096787;28;20110;-63
2023/01/29 01:17:14;;;;;;;8.50;8.10;;;;;;;;;;5097542;28;20016;-63
2023/01/29 01:19:39;;;;;;;8.80;8.40;;;;;;;;;;5102792;28;20049;-63
2023/01/29 01:22:05;;;;;;;8.55;8.15;;;;;;;;;;5100777;28;20024;-63
2023/01/29 01:24:30;;;;;;;8.48;8.07;;;;;;;;;;5104187;28;20509;-65
2023/01/29 01:26:56;;;;;;;8.38;7.97;;;;;;;;;;5102426;28;20118;-64
2023/01/29 01:29:23;;;;;;;8.57;8.18;;;;;;;;;;5097111;28;20035;-65
2023/01/29 01:31:48;;;;;;;8.70;8.30;;;;;;;;;;5084865;28;20019;-65
2023/01/29 01:34:14;;;;;;;8.35;7.95;;;;;;;;;;5097501;28;20031;-65
2023/01/29 01:36:39;;;;;;;8.40;8.00;;;;;;;;;;5093680;28;20061;-65
2023/01/29 01:39:05;;;;;;;9.00;8.60;;;;;;;;;;5100899;28;20024;-65
2023/01/29 01:41:30;;;;;;;9.43;8.93;;;;;;;;;;5099178;28;20032;-65
2023/01/29 01:43:56;;;;;;;8.82;8.43;;;;;;;;;;5083458;28;20030;-64
2023/01/29 01:46:22;;;;;;;8.80;8.40;;;;;;;;;;5083086;28;20436;-64
2023/01/29 01:48:53;;;;;;;8.70;8.30;;;;;;;;;;5099339;28;20129;-64
2023/01/29 01:51:19;;;;;;;9.10;8.63;;;;;;;;;;5100943;28;20028;-64
2023/01/29 01:53:50;;;;;;;9.25;8.82;;;;;;;;;;5094809;28;20417;-64
2023/01/29 01:56:20;;;;;;;9.05;8.63;;;;;;;;;;5101267;28;20016;-64
2023/01/29 01:58:50;;;;;;;9.07;8.65;;;;;;;;;;5099990;28;20159;-64
2023/01/29 02:01:16;;;;;;;8.60;8.20;;;;;;;;;;5103583;28;20024;-64
2023/01/29 02:11:59;;;;;;;8.77;8.38;;;;;;;;;;5095167;28;19945;-65
2023/01/29 02:14:24;;;;;;;9.25;8.80;;;;;;;;;;5095760;28;20422;-64
2023/01/29 02:16:50;;;;;;;8.90;8.50;;;;;;;;;;5095542;28;20016;-64
2023/01/29 02:19:18;;;;;;;9.02;8.63;;;;;;;;;;5101946;28;20498;-64
2023/01/29 02:21:44;;;;;;;9.15;8.75;;;;;;;;;;5101405;28;20028;-64
2023/01/29 02:24:15;;;;;;;8.82;8.43;;;;;;;;;;5100764;28;20039;-65
2023/01/29 02:26:43;;;;;;;9.10;8.70;;;;;;;;;;5098977;28;20050;-63
2023/01/29 02:29:29;;;;;;;9.57;9.07;;;;;;;;;;5096018;28;20024;-64
2023/01/29 02:32:01;;;;;;;9.02;8.63;;;;;;;;;;5099258;28;20015;-64
2023/01/29 02:37:34;;;;;;;9.00;8.60;;;;;;;;;;5102249;28;20103;-64
2023/01/29 02:40:07;;;;;;;8.90;8.50;;;;;;;;;;5105877;28;20240;-64
2023/01/29 02:42:52;;;;;;;8.93;8.52;;;;;;;;;;5100199;28;20115;-64
2023/01/29 02:45:20;;;;;;;8.98;8.57;;;;;;;;;;5097506;28;20090;-64
2023/01/29 02:47:57;;;;;;;9.63;9.13;;;;;;;;;;5079034;28;20493;-64
2023/01/29 02:50:38;;;;;;;8.90;8.50;;;;;;;;;;5104119;28;20064;-63
2023/01/29 02:53:23;;;;;;;8.73;8.32;;;;;;;;;;5103115;28;20479;-63
2023/01/29 02:56:15;;;;;;;8.40;8.00;;;;;;;;;;5056818;28;20027;-64
2023/01/29 02:58:42;;;;;;;8.75;8.35;;;;;;;;;;5101927;28;20039;-64
2023/01/29 03:01:12;;;;;;;8.70;8.30;;;;;;;;;;5104470;28;20020;-64
2023/01/29 03:03:43;;;;;;;9.27;8.80;;;;;;;;;;5104025;28;20065;-64
2023/01/29 03:06:21;;;;;;;8.75;8.35;;;;;;;;;;5099548;28;20402;-63
2023/01/29 03:08:49;;;;;;;9.52;9.02;;;;;;;;;;5106946;28;20020;-63
2023/01/29 03:11:16;;;;;;;8.90;8.50;;;;;;;;;;5104740;28;20038;-64
2023/01/29 03:13:48;;;;;;;9.20;8.80;;;;;;;;;;5101806;28;20011;-64
2023/01/29 03:16:32;;;;;;;9.10;8.70;;;;;;;;;;5101306;28;20024;-64
2023/01/29 03:19:00;;;;;;;9.40;8.90;;;;;;;;;;5095381;28;20532;-64
2023/01/29 03:21:58;;;;;;;8.82;8.43;;;;;;;;;;5110800;28;20039;-64
2023/01/29 03:33:04;;;;;;;9.07;8.68;;;;;;;;;;5101992;28;20115;-64
2023/01/29 03:35:36;;;;;;;9.20;8.80;;;;;;;;;;5102678;28;20024;-64
2023/01/29 03:38:04;;;;;;;9.25;8.80;;;;;;;;;;5103819;28;20016;-64
2023/01/29 03:40:41;;;;;;;9.00;8.60;;;;;;;;;;5101002;28;20103;-64
2023/01/29 03:43:25;;;;;;;9.50;9.00;;;;;;;;;;5101251;28;20016;-64
2023/01/29 03:46:07;;;;;;;8.68;8.27;;;;;;;;;;5102471;28;20099;-65
2023/01/29 03:48:58;;;;;;;9.10;8.70;;;;;;;;;;5101123;28;20039;-65
2023/01/29 03:51:24;;;;;;;9.10;8.70;;;;;;;;;;5094721;28;20024;-65
2023/01/29 03:53:52;;;;;;;9.32;8.85;;;;;;;;;;5104283;28;20042;-64
2023/01/29 03:56:17;;;;;;;9.10;8.70;;;;;;;;;;5103210;28;20019;-64
2023/01/29 03:58:52;;;;;;;9.55;9.05;;;;;;;;;;5105796;28;20052;-64
2023/01/29 04:01:39;;;;;;;9.57;9.07;;;;;;;;;;5103354;28;20469;-64
2023/01/29 04:04:24;;;;;;;9.70;9.20;;;;;;;;;;5065778;28;20475;-64
2023/01/29 04:06:51;;;;;;;9.88;9.38;;;;;;;;;;5070249;28;20170;-64
2023/01/29 04:09:23;;;;;;;9.32;8.82;;;;;;;;;;5100728;28;20020;-64
2023/01/29 04:11:53;;;;;;;9.25;8.77;;;;;;;;;;5082373;28;20471;-65
2023/01/29 04:14:18;;;;;;;9.18;8.70;;;;;;;;;;5103498;28;20407;-64
2023/01/29 04:16:47;;;;;;;9.32;8.82;;;;;;;;;;5100116;28;20050;-63
2023/01/29 04:19:12;;;;;;;9.00;8.60;;;;;;;;;;5103043;28;20024;-65
2023/01/29 04:21:38;;;;;;;9.38;8.90;;;;;;;;;;5100503;28;20556;-66
2023/01/29 04:24:05;;;;;;;8.65;8.25;;;;;;;;;;5101120;28;20058;-65
2023/01/29 04:26:41;;;;;;;8.80;8.40;;;;;;;;;;5099503;28;20486;-65
2023/01/29 04:29:25;;;;;;;9.35;8.85;;;;;;;;;;5095833;28;20051;-65
2023/01/29 04:31:56;;;;;;;9.18;8.68;;;;;;;;;;5100696;28;20649;-65
2023/01/29 04:34:27;;;;;;;10.20;9.63;;;;;;;;;;5099334;28;20062;-65
2023/01/29 04:37:11;;;;;;;9.30;8.80;;;;;;;;;;5102260;28;20505;-65
2023/01/29 04:39:47;;;;;;;9.20;8.70;;;;;;;;;;5097040;28;20032;-66
2023/01/29 04:42:19;;;;;;;8.68;8.27;;;;;;;;;;5097949;28;20107;-64
2023/01/29 04:45:11;;;;;;;8.50;8.10;;;;;;;;;;5098603;28;20051;-64
2023/01/29 04:47:36;;;;;;;9.20;8.70;;;;;;;;;;5062798;28;20044;-64
2023/01/29 04:50:31;;;;;;;9.40;8.90;;;;;;;;;;5102393;28;20073;-64
2023/01/29 04:52:56;;;;;;;;;;;;;;;;;;5085272;28;20024;-64
2023/01/29 04:55:21;;;;;;;9.10;8.60;;;;;;;;;;5096979;28;20002;-64
2023/01/29 04:57:53;;;;;;;9.38;8.88;;;;;;;;;;5099452;28;20036;-64
2023/01/29 05:00:21;;;;;;;9.18;8.70;;;;;;;;;;5100043;28;20474;-64
2023/01/29 05:02:47;;;;;;;8.35;7.95;;;;;;;;;;5094395;28;20590;-65
2023/01/29 05:05:13;;;;;;;9.50;9.00;;;;;;;;;;5095823;28;20016;-64
2023/01/29 05:07:40;;;;;;;8.73;8.32;;;;;;;;;;5097841;28;20486;-65
2023/01/29 05:10:07;;;;;;;8.90;8.48;;;;;;;;;;5104401;28;20024;-64
2023/01/29 05:12:33;;;;;;;8.40;8.00;;;;;;;;;;5097023;28;20035;-65
2023/01/29 05:15:00;;;;;;;9.27;8.77;;;;;;;;;;5101373;28;20019;-65
2023/01/29 05:17:26;;;;;;;8.70;8.30;;;;;;;;;;5099749;28;20030;-65
2023/01/29 05:19:53;;;;;;;8.55;8.15;;;;;;;;;;5099131;28;20023;-65
2023/01/29 05:22:21;;;;;;;8.90;8.50;;;;;;;;;;5102307;28;20390;-63
2023/01/29 05:24:47;;;;;;;8.73;8.32;;;;;;;;;;5095268;28;20067;-65
2023/01/29 05:30:11;;;;;;;9.55;9.05;;;;;;;;;;5096746;28;20058;-64
2023/01/29 05:32:38;;;;;;;9.80;9.27;;;;;;;;;;5099094;28;20047;-66
2023/01/29 05:35:04;;;;;;;9.10;8.70;;;;;;;;;;5097743;28;20623;-65
2023/01/29 05:37:29;;;;;;;9.13;8.73;;;;;;;;;;5096990;28;20024;-65
2023/01/29 05:39:54;;;;;;;8.55;8.15;;;;;;;;;;5103884;28;21640;-65
2023/01/29 05:42:20;;;;;;;9.40;8.90;;;;;;;;;;5092725;28;20027;-65
2023/01/29 05:44:45;;;;;;;8.82;8.43;;;;;;;;;;5100554;28;20364;-65
2023/01/29 05:47:10;;;;;;;8.90;8.50;;;;;;;;;;5097847;28;20027;-63
2023/01/29 05:49:36;;;;;;;8.98;8.57;;;;;;;;;;5103483;28;20016;-63
2023/01/29 05:52:01;;;;;;;8.90;8.50;;;;;;;;;;5100149;28;20016;-65
2023/01/29 05:54:26;;;;;;;9.13;8.65;;;;;;;;;;5101842;28;20505;-65
2023/01/29 05:56:52;;;;;;;8.90;8.50;;;;;;;;;;5097372;28;20577;-64
2023/01/29 05:59:17;;;;;;;9.30;8.80;;;;;;;;;;5090579;28;20085;-66
2023/01/29 06:01:42;;;;;;;9.32;8.82;;;;;;;;;;5105085;28;20020;-65
2023/01/29 06:04:08;;;;;;;9.43;8.93;;;;;;;;;;5100506;28;20073;-65
2023/01/29 06:06:33;;;;;;;9.00;8.60;;;;;;;;;;5082644;28;20028;-65
2023/01/29 06:08:58;;;;;;;8.77;8.38;;;;;;;;;;5099064;28;20028;-65
2023/01/29 06:11:23;;;;;;;9.10;8.70;;;;;;;;;;5102355;28;20069;-65
2023/01/29 06:13:49;;;;;;;8.85;8.45;;;;;;;;;;5098644;28;20496;-65
2023/01/29 06:16:14;;;;;;;8.73;8.32;;;;;;;;;;5103903;28;20024;-65
2023/01/29 06:18:40;;;;;;;9.50;9.00;;;;;;;;;;5106389;28;20022;-65
2023/01/29 06:21:07;;;;;;;9.05;8.65;;;;;;;;;;5106233;28;20324;-65
2023/01/29 06:23:32;;;;;;;8.82;8.43;;;;;;;;;;5101777;28;20030;-64
2023/01/29 06:25:58;;;;;;;9.13;8.73;;;;;;;;;;5101630;28;20024;-66
2023/01/29 06:28:24;;;;;;;9.75;9.25;;;;;;;;;;5104059;28;20023;-64
2023/01/29 06:30:49;;;;;;;9.40;8.90;;;;;;;;;;5080800;28;20027;-65
2023/01/29 06:33:14;;;;;;;9.40;8.90;;;;;;;;;;5104918;28;20593;-64
2023/01/29 06:35:40;;;;;;;9.63;9.13;;;;;;;;;;5102075;28;20024;-65
2023/01/29 06:38:05;;;;;;;9.27;8.77;;;;;;;;;;5103298;28;20012;-64
2023/01/29 06:40:30;;;;;;;9.50;9.00;;;;;;;;;;5103648;28;20019;-65
2023/01/29 06:42:55;;;;;;;10.13;9.52;;;;;;;;;;5100301;28;20391;-64
2023/01/29 06:45:21;;;;;;;9.60;9.10;;;;;;;;;;5102019;28;20043;-65
2023/01/29 06:47:46;;;;;;;9.82;9.32;;;;;;;;;;5102045;28;20047;-65
2023/01/29 06:50:11;;;;;;;9.43;8.95;;;;;;;;;;5108555;28;20024;-65
2023/01/29 06:52:37;;;;;;;9.38;8.93;;;;;;;;;;5107714;28;20020;-64
2023/01/29 06:55:02;;;;;;;10.05;9.55;;;;;;;;;;5085422;28;20490;-64
2023/01/29 06:57:28;;;;;;;8.98;8.57;;;;;;;;;;5102771;28;20357;-65
2023/01/29 06:59:53;;;;;;;9.45;8.95;;;;;;;;;;5101352;28;20031;-65
2023/01/29 07:02:19;;;;;;;8.88;8.48;;;;;;;;;;5098965;28;20147;-65
2023/01/29 07:04:44;;;;;;;10.05;9.52;;;;;;;;;;5101990;28;20047;-65
2023/01/29 07:07:12;;;;;;;9.07;8.68;;;;;;;;;;5102156;28;20466;-65
2023/01/29 07:09:39;;;;;;;10.32;9.73;;;;;;;;;;5099516;28;20062;-65
2023/01/29 07:12:05;;;;;;;9.20;8.80;;;;;;;;;;5097328;28;20064;-66
2023/01/29 07:14:30;;;;;;;10.18;9.65;;;;;;;;;;5103595;28;20016;-65
2023/01/29 07:16:55;;;;;;;9.05;8.65;;;;;;;;;;5096531;28;20386;-64
2023/01/29 07:19:21;;;;;;;9.02;8.63;;;;;;;;;;5079723;28;20016;-64
2023/01/29 07:21:46;;;;;;;8.88;8.48;;;;;;;;;;5098910;28;20023;-64
2023/01/29 07:24:11;;;;;;;9.27;8.82;;;;;;;;;;5103243;28;20598;-66
2023/01/29 07:26:37;;;;;;;9.80;9.30;;;;;;;;;;5094276;28;20029;-63
2023/01/29 07:29:03;;;;;;;9.00;8.60;;;;;;;;;;5095426;28;20012;-63
2023/01/29 07:31:28;;;;;;;9.32;8.82;;;;;;;;;;5103729;28;20020;-64
2023/01/29 07:33:54;;;;;;;8.65;8.25;;;;;;;;;;5098326;28;20070;-64
2023/01/29 07:36:20;;;;;;;9.10;8.70;;;;;;;;;;5105064;28;20024;-65
2023/01/29 07:38:48;;;;;;;9.77;9.27;;;;;;;;;;5103610;28;20097;-63
2023/01/29 07:41:13;;;;;;;8.90;8.50;;;;;;;;;;5101200;28;20016;-64
2023/01/29 07:43:39;;;;;;;9.05;8.60;;;;;;;;;;5101855;28;20031;-62
2023/01/29 07:46:04;;;;;;;9.15;8.73;;;;;;;;;;5096331;28;20111;-63
2023/01/29 07:48:30;;;;;;;8.80;8.40;;;;;;;;;;5101381;28;20033;-62
2023/01/29 07:50:55;;;;;;;12.27;11.48;;;;;;;;;;5094394;28;20020;-63
2023/01/29 07:53:21;;;;;;;10.02;9.48;;;;;;;;;;5087142;28;20039;-65
2023/01/29 07:55:46;;;;;;;10.05;9.48;;;;;;;;;;5090449;28;20015;-64
2023/01/29 07:58:11;;;;;;;10.23;9.63;;;;;;;;;;5096845;28;20149;-64
2023/01/29 08:00:36;;;;;;;9.25;8.75;;;;;;;;;;5097416;28;20016;-64
2023/01/29 08:03:06;;;;;;;9.68;9.18;;;;;;;;;;5095030;28;20068;-64
2023/01/29 08:05:31;;;;;;;9.02;8.63;;;;;;;;;;5101849;28;20594;-64
2023/01/29 08:07:57;;;;;;;9.90;9.40;;;;;;;;;;5101236;28;20012;-64
2023/01/29 08:10:23;;;;;;;10.07;9.52;;;;;;;;;;5101671;28;20027;-64
2023/01/29 08:12:52;;;;;;;9.30;8.80;;;;;;;;;;5102023;28;20026;-63
2023/01/29 08:15:17;;;;;;;10.35;9.75;;;;;;;;;;5085148;28;20035;-64
2023/01/29 08:17:44;;;;;;;10.63;10.02;;;;;;;;;;5097161;28;20020;-64
2023/01/29 08:20:09;;;;;;;9.63;9.13;;;;;;;;;;5082055;28;20035;-63
2023/01/29 08:22:35;;;;;;;9.82;9.32;;;;;;;;;;5089889;28;20031;-64
2023/01/29 08:25:00;;;;;;;10.40;9.80;;;;;;;;;;5091979;28;20020;-64
2023/01/29 08:27:25;;;;;;;9.82;9.32;;;;;;;;;;5088721;28;20072;-64
2023/01/29 08:29:51;;;;;;;10.05;9.55;;;;;;;;;;5094619;28;20542;-64
2023/01/29 08:32:16;;;;;;;9.43;8.95;;;;;;;;;;5091580;28;20046;-65
2023/01/29 08:34:41;;;;;;;9.75;9.25;;;;;;;;;;5090241;28;20144;-64
2023/01/29 08:37:07;;;;;;;10.43;9.82;;;;;;;;;;5086049;28;20015;-67
2023/01/29 08:39:32;;;;;;;9.90;9.40;;;;;;;;;;5087924;28;20100;-67
2023/01/29 08:41:57;;;;;;;9.30;8.82;;;;;;;;;;5093567;28;20363;-67
2023/01/29 08:44:23;;;;;;;9.82;9.32;;;;;;;;;;5086358;28;20028;-69
2023/01/29 08:46:48;;;;;;;10.43;9.82;;;;;;;;;;5087258;28;20025;-69
2023/01/29 08:49:13;;;;;;;10.60;10.00;;;;;;;;;;5091027;28;20028;-68
2023/01/29 08:51:39;;;;;;;10.70;10.10;;;;;;;;;;5089258;28;20045;-67
2023/01/29 08:54:04;;;;;;;10.35;9.77;;;;;;;;;;5087158;28;20035;-67
2023/01/29 08:56:29;;;;;;;9.57;9.07;;;;;;;;;;5088750;28;20024;-68
2023/01/29 08:58:54;;;;;;;10.27;9.68;;;;;;;;;;5100546;28;20043;-68
2023/01/29 09:01:20;;;;;;;9.75;9.25;;;;;;;;;;5091822;28;20429;-67
2023/01/29 09:03:45;;;;;;;9.52;9.02;;;;;;;;;;5095278;28;20098;-66
2023/01/29 09:06:12;;;;;;;11.38;10.68;;;;;;;;;;5097136;28;20028;-67
2023/01/29 09:08:37;;;;;;;9.60;9.10;;;;;;;;;;5094457;28;20053;-65
2023/01/29 09:11:03;;;;;;;9.18;8.75;;;;;;;;;;5094539;28;20020;-66
2023/01/29 09:13:28;;;;;;;9.20;8.75;;;;;;;;;;5099508;28;20476;-66
2023/01/29 09:15:57;;;;;;;9.13;8.73;;;;;;;;;;5102195;28;20028;-66
2023/01/29 09:18:23;;;;;;;9.75;9.25;;;;;;;;;;5094444;28;20012;-67
2023/01/29 09:20:48;;;;;;;10.07;9.52;;;;;;;;;;5095138;28;20045;-66
2023/01/29 09:23:14;;;;;;;8.98;8.57;;;;;;;;;;5092654;28;20020;-67
2023/01/29 09:25:41;;;;;;;8.88;8.48;;;;;;;;;;5096256;28;20378;-66
2023/01/29 09:28:07;;;;;;;9.13;8.70;;;;;;;;;;5094228;28;20031;-66
2023/01/29 09:30:33;;;;;;;9.77;9.27;;;;;;;;;;5093931;28;20032;-66
2023/01/29 09:32:59;;;;;;;10.18;9.60;;;;;;;;;;5093474;28;20020;-67
2023/01/29 09:35:24;;;;;;;9.80;9.30;;;;;;;;;;5088677;28;20012;-68
2023/01/29 09:37:50;;;;;;;10.57;10.00;;;;;;;;;;5087839;28;20047;-67
2023/01/29 09:40:28;;;;;;;8.98;8.57;;;;;;;;;;5093126;28;20032;-67
2023/01/29 09:43:00;;;;;;;9.20;8.80;;;;;;;;;;5082922;28;20036;-68
2023/01/29 09:45:26;;;;;;;9.13;8.73;;;;;;;;;;5091718;28;20083;-67
2023/01/29 09:47:52;;;;;;;8.93;8.52;;;;;;;;;;5100424;28;20486;-69
2023/01/29 09:50:23;;;;;;;9.15;8.75;;;;;;;;;;5092701;28;20059;-65
2023/01/29 09:53:01;;;;;;;9.48;8.98;;;;;;;;;;5093439;28;20024;-67
2023/01/29 09:55:36;;;;;;;9.95;9.45;;;;;;;;;;5097071;28;20429;-66
2023/01/29 09:58:10;;;;;;;9.15;8.75;;;;;;;;;;5088980;28;20071;-72
2023/01/29 10:00:55;;;;;;;9.63;9.13;;;;;;;;;;5091767;28;20050;-68
2023/01/29 10:03:20;;;;;;;;;;;;;;;;;;5098256;28;20023;-68
2023/01/29 10:05:54;;;;;;;8.93;8.53;;;;;;;;;;5091924;28;19908;-68
2023/01/29 10:08:29;;;;;;;8.60;8.20;;;;;;;;;;5097948;28;20271;-68
2023/01/29 10:11:04;;;;;;;9.52;9.02;;;;;;;;;;5090194;28;20382;-69
2023/01/29 10:13:29;;;;;;;9.13;8.73;;;;;;;;;;5096550;28;20030;-68
2023/01/29 10:16:02;;;;;;;9.25;8.77;;;;;;;;;;5093419;28;20016;-67
2023/01/29 10:18:36;;;;;;;9.73;9.23;;;;;;;;;;5086862;28;20020;-67
2023/01/29 10:21:03;;;;;;;;;;;;;;;;;;5086128;28;20066;-69
2023/01/29 10:23:43;;;;;;;8.77;8.38;;;;;;;;;;5087025;28;19954;-69
2023/01/29 10:26:12;;;;;;;8.15;7.85;;;;;;;;;;5090376;28;20012;-68
2023/01/29 10:28:45;;;;;;;9.90;9.40;;;;;;;;;;5087491;28;20036;-68
2023/01/29 10:31:26;;;;;;;9.60;9.10;;;;;;;;;;5087064;28;20032;-68
2023/01/29 10:33:57;;;;;;;9.20;8.80;;;;;;;;;;5087274;28;20034;-68
2023/01/29 10:36:27;;;;;;;9.45;9.00;;;;;;;;;;5088140;28;20023;-68
2023/01/29 10:38:54;;;;;;;9.43;8.93;;;;;;;;;;5091937;28;20391;-70
2023/01/29 10:41:29;;;;;;;9.65;9.15;;;;;;;;;;5091532;28;20479;-67
2023/01/29 10:43:54;;;;;;;9.25;8.77;;;;;;;;;;5098988;28;20023;-67
2023/01/29 10:46:24;;;;;;;9.80;9.30;;;;;;;;;;5080186;28;20038;-67
2023/01/29 10:48:56;;;;;;;8.93;8.52;;;;;;;;;;5084685;28;20103;-67
2023/01/29 10:51:22;;;;;;;10.18;9.68;;;;;;;;;;5091980;28;20020;-66
2023/01/29 10:53:47;;;;;;;10.00;9.50;;;;;;;;;;5085501;28;20103;-67
2023/01/29 10:56:21;;;;;;;9.43;8.93;;;;;;;;;;5085689;28;20036;-67
2023/01/29 10:58:59;;;;;;;9.52;9.02;;;;;;;;;;5097789;28;20039;-67
2023/01/29 11:01:25;;;;;;;10.02;9.52;;;;;;;;;;5095659;28;20486;-68
2023/01/29 11:04:01;;;;;;;9.23;8.82;;;;;;;;;;5093222;28;20081;-68
2023/01/29 11:06:33;;;;;;;9.68;9.18;;;;;;;;;;5102324;28;20184;-68
2023/01/29 11:08:58;;;;;;;9.43;8.93;;;;;;;;;;5087947;28;20035;-69
2023/01/29 11:11:44;;;;;;;9.13;8.73;;;;;;;;;;5100243;28;20047;-68
2023/01/29 11:14:12;;;;;;;9.15;8.75;;;;;;;;;;5075525;28;20046;-66
2023/01/29 11:16:41;;;;;;;9.45;8.95;;;;;;;;;;5093705;28;20012;-66
2023/01/29 11:19:06;;;;;;;9.52;9.02;;;;;;;;;;5091640;28;20042;-69
2023/01/29 11:21:48;;;;;;;9.70;9.20;;;;;;;;;;5091598;28;21048;-66
2023/01/29 11:24:17;;;;;;;9.00;8.60;;;;;;;;;;5077867;28;20073;-68
2023/01/29 11:26:44;;;;;;;9.63;9.13;;;;;;;;;;5098285;28;20020;-66
2023/01/29 11:29:38;;;;;;;9.60;9.10;;;;;;;;;;5091329;28;20074;-69
2023/01/29 11:32:06;;;;;;;10.07;9.57;;;;;;;;;;5069735;28;20029;-70
2023/01/29 11:34:31;;;;;;;9.02;8.63;;;;;;;;;;5095199;28;20066;-68
2023/01/29 11:37:01;;;;;;;10.38;9.80;;;;;;;;;;5090734;28;20020;-69
2023/01/29 11:39:27;;;;;;;9.65;9.15;;;;;;;;;;5098607;28;20029;-68
2023/01/29 11:41:59;;;;;;;9.20;8.80;;;;;;;;;;5091357;28;20028;-68
2023/01/29 11:44:32;;;;;;;9.18;8.77;;;;;;;;;;5091772;28;20032;-66
2023/01/29 11:47:08;;;;;;;9.70;9.20;;;;;;;;;;5074974;28;22005;-66
2023/01/29 11:49:34;;;;;;;9.43;8.95;;;;;;;;;;5093744;28;20031;-66
2023/01/29 11:52:01;;;;;;;9.45;8.95;;;;;;;;;;5100547;28;20523;-65
2023/01/29 11:54:28;;;;;;;11.57;10.88;;;;;;;;;;5097099;28;20020;-68
2023/01/29 11:56:54;;;;;;;9.75;9.25;;;;;;;;;;5090148;28;20028;-68
2023/01/29 11:59:41;;;;;;;9.40;8.90;;;;;;;;;;5098628;28;20409;-66
2023/01/29 12:02:39;;;;;;;9.68;9.18;;;;;;;;;;5096845;28;20024;-67
2023/01/29 12:05:15;;;;;;;9.93;9.43;;;;;;;;;;5057952;28;20123;-66
2023/01/29 12:07:41;;;;;;;10.98;10.35;;;;;;;;;;5093994;28;20031;-67
2023/01/29 12:10:26;;;;;;;9.77;9.27;;;;;;;;;;5099585;28;20117;-67
2023/01/29 12:13:02;;;;;;;9.93;9.43;;;;;;;;;;5095152;28;20031;-67
2023/01/29 12:15:27;;;;;;;9.40;8.90;;;;;;;;;;5103002;28;20077;-68
2023/01/29 12:18:02;;;;;;;10.00;9.50;;;;;;;;;;5094506;28;20020;-66
2023/01/29 12:20:30;;;;;;;12.05;11.30;;;;;;;;;;5085088;28;20130;-67
2023/01/29 12:23:15;;;;;;;8.93;8.52;;;;;;;;;;5092747;28;20039;-66
2023/01/29 12:25:44;;;;;;;9.50;9.00;;;;;;;;;;5097496;28;21284;-67
2023/01/29 12:28:32;;;;;;;9.98;9.48;;;;;;;;;;5092300;28;20047;-66
2023/01/29 12:31:11;;;;;;;9.45;9.00;;;;;;;;;;5085441;28;20032;-66
2023/01/29 12:33:51;;;;;;;10.73;10.13;;;;;;;;;;5095683;28;20024;-65
2023/01/29 12:36:20;;;;;;;8.70;8.30;;;;;;;;;;5097194;28;20016;-65
2023/01/29 12:38:45;;;;;;;9.13;8.73;;;;;;;;;;5102747;28;20496;-66
2023/01/29 12:41:17;;;;;;;9.60;9.10;;;;;;;;;;5089867;28;20095;-66
2023/01/29 12:43:47;;;;;;;10.05;9.55;;;;;;;;;;5087071;28;20042;-66
2023/01/29 12:46:24;;;;;;;9.00;8.60;;;;;;;;;;5104372;28;20066;-66
2023/01/29 12:48:51;;;;;;;8.80;8.40;;;;;;;;;;5100685;28;20110;-66
2023/01/29 12:51:23;;;;;;;9.00;8.60;;;;;;;;;;5095703;28;20078;-66
2023/01/29 12:53:51;;;;;;;9.65;9.15;;;;;;;;;;5099495;28;20027;-65
2023/01/29 12:56:31;;;;;;;9.00;8.60;;;;;;;;;;5100229;28;20018;-66
2023/01/29 12:58:58;;;;;;;9.60;9.10;;;;;;;;;;5094077;28;20052;-66
2023/01/29 13:01:30;;;;;;;9.52;9.02;;;;;;;;;;5102288;28;20058;-65
2023/01/29 13:04:08;;;;;;;9.63;9.13;;;;;;;;;;5091674;28;20023;-66
2023/01/29 13:06:49;;;;;;;9.50;9.00;;;;;;;;;;5101132;28;20023;-66
2023/01/29 13:09:18;;;;;;;9.80;9.30;;;;;;;;;;5097526;28;20023;-66
2023/01/29 13:11:52;;;;;;;9.60;9.10;;;;;;;;;;5098471;28;20012;-65
2023/01/29 13:14:20;;;;;;;9.32;8.82;;;;;;;;;;5104223;28;20471;-66
2023/01/29 13:16:47;;;;;;;9.65;9.15;;;;;;;;;;5111407;28;20038;-66
2023/01/29 13:19:26;;;;;;;9.30;8.88;;;;;;;;;;5104093;28;20390;-65
2023/01/29 13:21:52;;;;;;;9.25;8.82;;;;;;;;;;5096918;28;20039;-66
2023/01/29 13:24:20;;;;;;;9.50;9.00;;;;;;;;;;5097498;28;20016;-66
2023/01/29 13:26:45;;;;;;;9.77;9.27;;;;;;;;;;5102613;28;20035;-65
2023/01/29 13:29:22;;;;;;;10.85;10.25;;;;;;;;;;5102286;28;20143;-65
2023/01/29 13:31:48;;;;;;;9.63;9.13;;;;;;;;;;5099926;28;20159;-65
2023/01/29 13:34:46;;;;;;;9.40;8.90;;;;;;;;;;5100042;28;20406;-66
2023/01/29 13:37:21;;;;;;;9.05;8.65;;;;;;;;;;5055438;28;20058;-65
2023/01/29 13:39:48;;;;;;;8.93;8.52;;;;;;;;;;5100186;28;20399;-66
2023/01/29 13:42:18;;;;;;;9.95;9.45;;;;;;;;;;5099974;28;20501;-65
2023/01/29 13:44:54;;;;;;;9.60;9.10;;;;;;;;;;5094142;28;20072;-66
2023/01/29 13:47:22;;;;;;;9.43;8.93;;;;;;;;;;5097090;28;20479;-65
2023/01/29 13:49:55;;;;;;;9.27;8.88;;;;;;;;;;5100674;28;20157;-66
2023/01/29 13:52:42;;;;;;;9.10;8.70;;;;;;;;;;5098917;28;20051;-66
2023/01/29 13:55:08;;;;;;;9.00;8.60;;;;;;;;;;5097412;28;20096;-66
2023/01/29 13:57:42;;;;;;;9.25;8.82;;;;;;;;;;5078604;28;20499;-66
2023/01/29 14:00:29;;;;;;;10.07;9.55;;;;;;;;;;5098332;28;20065;-66
2023/01/29 14:03:04;;;;;;;9.63;9.13;;;;;;;;;;5088063;28;20043;-65
2023/01/29 14:05:29;;;;;;;;;;;;;;;;;;5101236;28;20120;-66
2023/01/29 14:07:55;;;;;;;8.93;8.52;;;;;;;;;;5084968;28;20002;-66
2023/01/29 14:10:21;;;;;;;9.00;8.60;;;;;;;;;;5106109;28;20049;-66
2023/01/29 14:12:48;;;;;;;9.57;9.07;;;;;;;;;;5096109;28;20047;-65
2023/01/29 14:15:14;;;;;;;8.90;8.50;;;;;;;;;;5097638;28;20486;-64
2023/01/29 14:17:52;;;;;;;9.00;8.60;;;;;;;;;;5101173;28;20087;-66
2023/01/29 14:20:19;;;;;;;10.30;9.70;;;;;;;;;;5098202;28;20020;-66
2023/01/29 14:22:52;;;;;;;9.23;8.80;;;;;;;;;;5096951;28;20019;-66
2023/01/29 14:25:27;;;;;;;8.80;8.40;;;;;;;;;;5099002;28;20031;-66
2023/01/29 14:27:52;;;;;;;8.80;8.40;;;;;;;;;;5099212;28;20021;-65
2023/01/29 14:30:18;;;;;;;9.45;8.98;;;;;;;;;;5100750;28;20016;-66
2023/01/29 14:32:47;;;;;;;9.50;9.00;;;;;;;;;;5101559;28;20019;-66
2023/01/29 14:35:23;;;;;;;9.45;8.95;;;;;;;;;;5101116;28;20019;-66
2023/01/29 14:37:53;;;;;;;9.50;9.00;;;;;;;;;;5096029;28;20058;-65
2023/01/29 14:40:18;;;;;;;8.88;8.48;;;;;;;;;;5106799;28;20115;-66
2023/01/29 14:42:51;;;;;;;10.38;9.77;;;;;;;;;;5102178;28;20165;-66
2023/01/29 14:45:35;;;;;;;9.43;8.93;;;;;;;;;;5096595;28;20028;-65
2023/01/29 14:48:10;;;;;;;8.45;8.05;;;;;;;;;;5082741;28;20605;-65
2023/01/29 14:50:35;;;;;;;9.48;8.98;;;;;;;;;;5096008;28;20441;-65
2023/01/29 14:53:05;;;;;;;9.50;9.00;;;;;;;;;;5102242;28;20039;-65
2023/01/29 14:55:36;;;;;;;9.90;9.40;;;;;;;;;;5100497;28;20028;-65
2023/01/29 14:58:02;;;;;;;8.80;8.40;;;;;;;;;;5107724;28;20116;-66
2023/01/29 15:00:33;;;;;;;9.00;8.60;;;;;;;;;;5104880;28;20024;-66
2023/01/29 15:02:59;;;;;;;8.77;8.38;;;;;;;;;;5102104;28;20236;-66
2023/01/29 15:05:36;;;;;;;9.30;8.80;;;;;;;;;;5102689;28;20088;-66
2023/01/29 15:08:07;;;;;;;9.13;8.73;;;;;;;;;;5107186;28;20478;-66
2023/01/29 15:10:37;;;;;;;9.50;9.00;;;;;;;;;;5102248;28;20016;-67
2023/01/29 15:13:07;;;;;;;9.32;8.90;;;;;;;;;;5104705;28;20352;-65
2023/01/29 15:15:55;;;;;;;9.02;8.63;;;;;;;;;;5102625;28;20026;-66
2023/01/29 15:18:32;;;;;;;9.45;8.95;;;;;;;;;;5086158;28;20023;-66
2023/01/29 15:21:01;;;;;;;9.07;8.68;;;;;;;;;;5101605;28;20024;-65
2023/01/29 15:23:27;;;;;;;9.57;9.07;;;;;;;;;;5099344;28;20043;-65
2023/01/29 15:25:56;;;;;;;9.27;8.77;;;;;;;;;;5106857;28;20099;-66
2023/01/29 15:28:22;;;;;;;8.70;8.30;;;;;;;;;;5102044;28;20032;-65